Back to top

Torrington, WY weather

Torrington Municipal Airport, Torrington, WY: 7/22/2019 14:53
Visibility10 statute milessun with scattered clouds
View 7-Day Forecast
Area Summary
Sky/CloudsScattered at 3800ft
Weather [last 24 hours]None
Pressure30.28 in.Hg (1026 hPa)
3-hour Pressure Tendency0.05019 in.Hg (1.7 hPa) Decreasing, then steady, or decreasing then decreasing more slowly
Dew Point63 °F (17.2 °C)
Relative Humidity56.1 %
Temperature80.1 °F (26.7 °C)red thermometer
Reading TimeMinimum to Maximum Temperature
6-hr ending 7/22@11:5361 °F to 71.1 °F (16.1 °C to 21.7 °C)
6-hr ending 7/22@05:5361 °F to 63 °F (16.1 °C to 17.2 °C)
6-hr ending 7/21@23:5361 °F to 75.9 °F (16.1 °C to 24.4 °C)
6-hr ending 7/21@17:5373 °F to 80.1 °F (22.8 °C to 26.7 °C)
24-hr ending 7/22@00:5357.9 °F to 80.1 °F (14.4 °C to 26.7 °C)
Wind12.7 MPH (11 KT) green arrow pointing 157.5 degrees
Wind FromSouth/Southeast (150 Degrees)
Twilight Begins05:07Sunshine Yesterday
Sunrise05:39N/A
Sunset20:27
Twilight Ends20:59
METARKTOR 222053Z AUTO 15011KT 10SM SCT038 27/17 A3028 RMK AO2 SLP210 T02670172 56017
Tags: